createdAt,value
2018-09-05T00:00:38.332Z,15.50
2018-09-05T00:03:05.120Z,15.50
2018-09-05T00:05:31.772Z,15.50
2018-09-05T00:07:58.400Z,15.50
2018-09-05T00:10:25.054Z,15.50
2018-09-05T00:12:51.686Z,15.50
2018-09-05T00:15:18.303Z,15.50
2018-09-05T00:17:44.930Z,15.50
2018-09-05T00:20:11.543Z,15.50
2018-09-05T00:22:38.179Z,15.40
2018-09-05T00:25:05.149Z,15.40
2018-09-05T00:27:31.789Z,15.40
2018-09-05T00:29:58.455Z,15.40
2018-09-05T00:32:25.186Z,15.40
2018-09-05T00:34:51.799Z,15.40
2018-09-05T00:37:18.442Z,15.40
2018-09-05T00:39:45.052Z,15.50
2018-09-05T00:42:11.687Z,15.50
2018-09-05T00:44:38.303Z,15.50
2018-09-05T00:47:04.990Z,15.60
2018-09-05T00:49:31.618Z,15.50
2018-09-05T00:51:58.222Z,15.50
2018-09-05T00:54:24.855Z,15.50
2018-09-05T00:56:51.471Z,15.40
2018-09-05T00:59:18.115Z,15.40
2018-09-05T01:01:44.731Z,15.40
2018-09-05T01:04:11.410Z,15.40
2018-09-05T01:06:38.019Z,15.30
2018-09-05T01:09:06.324Z,15.20
2018-09-05T01:11:33.800Z,15.20
2018-09-05T01:14:00.482Z,15.10
2018-09-05T01:16:27.091Z,15.10
2018-09-05T01:18:53.788Z,15.10
2018-09-05T01:21:20.446Z,15.00
2018-09-05T01:23:47.363Z,15.00
2018-09-05T01:26:14.244Z,15.00
2018-09-05T01:28:40.883Z,15.00
2018-09-05T01:31:07.490Z,14.90
2018-09-05T01:33:34.544Z,14.90
2018-09-05T01:36:07.099Z,14.90
2018-09-05T01:38:33.750Z,14.80
2018-09-05T01:41:00.363Z,14.80
2018-09-05T01:43:27.050Z,14.80
2018-09-05T01:45:54.178Z,14.70
2018-09-05T01:48:20.815Z,14.70
2018-09-05T01:50:47.427Z,14.70
2018-09-05T01:53:14.462Z,14.70
2018-09-05T01:55:41.080Z,14.70
2018-09-05T01:58:08.186Z,14.70
2018-09-05T02:00:35.131Z,14.60
2018-09-05T02:03:02.547Z,14.60
2018-09-05T02:05:29.210Z,14.60
2018-09-05T02:07:55.814Z,14.60
2018-09-05T02:10:22.468Z,14.60
2018-09-05T02:12:49.650Z,14.50
2018-09-05T02:15:16.310Z,14.50
2018-09-05T02:17:42.987Z,14.40
2018-09-05T02:20:09.627Z,14.40
2018-09-05T02:22:36.263Z,14.30
2018-09-05T02:25:02.891Z,14.20
2018-09-05T02:27:29.515Z,14.20
2018-09-05T02:29:56.171Z,14.10
2018-09-05T02:32:22.800Z,14.10
2018-09-05T02:34:49.440Z,14.00
2018-09-05T02:37:16.119Z,14.00
2018-09-05T02:39:42.783Z,13.90
2018-09-05T02:42:09.407Z,13.80
2018-09-05T02:44:36.066Z,13.80
2018-09-05T02:47:02.906Z,13.80
2018-09-05T02:49:29.611Z,13.80
2018-09-05T02:51:56.228Z,13.70
2018-09-05T02:54:22.867Z,13.70
2018-09-05T02:56:49.483Z,13.70
2018-09-05T02:59:16.129Z,13.70
2018-09-05T03:01:42.747Z,13.70
2018-09-05T03:04:09.403Z,13.60
2018-09-05T03:06:36.007Z,13.60
2018-09-05T03:09:04.104Z,13.60
2018-09-05T03:11:30.971Z,13.60
2018-09-05T03:13:57.616Z,13.60
2018-09-05T03:16:24.575Z,13.60
2018-09-05T03:18:51.667Z,13.60
2018-09-05T03:21:18.551Z,13.50
2018-09-05T03:23:45.163Z,13.50
2018-09-05T03:26:11.810Z,13.50
2018-09-05T03:28:38.423Z,13.40
2018-09-05T03:31:05.299Z,13.40
2018-09-05T03:33:32.219Z,13.40
2018-09-05T03:35:58.909Z,13.40
2018-09-05T03:38:25.791Z,13.40
2018-09-05T03:40:52.436Z,13.30
2018-09-05T03:43:19.050Z,13.30
2018-09-05T03:45:45.706Z,13.30
2018-09-05T03:48:12.318Z,13.20
2018-09-05T03:50:38.955Z,13.10
2018-09-05T03:53:05.572Z,13.10
2018-09-05T03:55:32.214Z,13.10
2018-09-05T03:57:58.827Z,13.10
2018-09-05T04:00:28.135Z,13.00
2018-09-05T04:02:54.747Z,13.00
2018-09-05T04:05:21.391Z,13.00
2018-09-05T04:07:48.011Z,13.00
2018-09-05T04:10:14.710Z,13.00
2018-09-05T04:12:42.124Z,13.00
2018-09-05T04:15:09.087Z,13.00
2018-09-05T04:17:35.707Z,13.00
2018-09-05T04:20:02.367Z,13.00
2018-09-05T04:22:28.983Z,13.00
2018-09-05T04:24:55.623Z,13.00
2018-09-05T04:27:22.240Z,13.00
2018-09-05T04:29:48.895Z,13.00
2018-09-05T04:32:15.507Z,13.00
2018-09-05T04:34:42.159Z,13.10
2018-09-05T04:37:08.767Z,13.10
2018-09-05T04:39:35.408Z,13.10
2018-09-05T04:42:02.035Z,13.20
2018-09-05T04:44:28.646Z,13.20
2018-09-05T04:46:55.303Z,13.30
2018-09-05T04:49:21.944Z,13.40
2018-09-05T04:51:48.577Z,13.40
2018-09-05T04:54:15.179Z,13.40
2018-09-05T04:56:41.818Z,13.50
2018-09-05T04:59:08.432Z,13.60
2018-09-05T05:01:35.410Z,13.50
2018-09-05T05:04:02.031Z,13.40
2018-09-05T05:06:28.724Z,13.40
2018-09-05T05:08:55.359Z,13.30
2018-09-05T05:11:21.990Z,13.30
2018-09-05T05:13:49.119Z,13.30
2018-09-05T05:16:15.822Z,13.30
2018-09-05T05:18:42.427Z,13.30
2018-09-05T05:21:09.066Z,13.40
2018-09-05T05:23:35.762Z,13.50
2018-09-05T05:26:02.359Z,13.60
2018-09-05T05:28:28.967Z,13.80
2018-09-05T05:30:55.743Z,13.90
2018-09-05T05:33:22.379Z,14.00
2018-09-05T05:35:49.007Z,14.10
2018-09-05T05:38:16.241Z,14.10
2018-09-05T05:40:42.879Z,14.20
2018-09-05T05:43:09.507Z,14.30
2018-09-05T05:45:36.155Z,14.40
2018-09-05T05:48:02.823Z,14.50
2018-09-05T05:50:29.463Z,14.60
2018-09-05T05:52:56.099Z,14.70
2018-09-05T05:55:22.711Z,14.90
2018-09-05T05:57:49.351Z,15.30
2018-09-05T06:00:15.983Z,15.70
2018-09-05T06:02:42.636Z,16.10
2018-09-05T06:05:09.491Z,16.40
2018-09-05T06:07:36.134Z,16.60
2018-09-05T06:10:02.802Z,17.00
2018-09-05T06:12:29.455Z,17.40
2018-09-05T06:14:56.071Z,17.80
2018-09-05T06:17:22.743Z,18.40
2018-09-05T06:19:49.391Z,18.90
2018-09-05T06:22:16.039Z,19.20
2018-09-05T06:24:42.687Z,19.70
2018-09-05T06:27:09.323Z,20.20
2018-09-05T06:29:35.977Z,20.60
2018-09-05T06:32:02.583Z,20.90
2018-09-05T06:34:29.199Z,20.90
2018-09-05T06:36:55.826Z,21.00
2018-09-05T06:39:22.456Z,21.30
2018-09-05T06:41:49.707Z,21.80
2018-09-05T06:44:16.326Z,22.30
2018-09-05T06:46:42.983Z,22.90
2018-09-05T06:49:09.743Z,23.40
2018-09-05T06:51:36.392Z,23.90
2018-09-05T06:54:03.003Z,24.50
2018-09-05T06:56:29.639Z,24.30
2018-09-05T06:58:56.311Z,24.40
2018-09-05T07:01:22.915Z,25.00
2018-09-05T07:03:49.888Z,25.40
2018-09-05T07:06:16.743Z,25.30
2018-09-05T07:08:43.403Z,24.90
2018-09-05T07:11:10.035Z,25.50
2018-09-05T07:13:36.645Z,25.30
2018-09-05T07:16:03.292Z,25.40
2018-09-05T07:18:30.350Z,25.70
2018-09-05T07:21:05.679Z,25.20
2018-09-05T07:23:25.118Z,25.90
2018-09-05T07:25:52.312Z,26.20
2018-09-05T07:28:18.921Z,25.60
2018-09-05T07:30:45.571Z,24.70
2018-09-05T07:33:12.187Z,25.70
2018-09-05T07:35:38.844Z,26.30
2018-09-05T07:38:05.515Z,26.50
2018-09-05T07:40:32.776Z,26.70
2018-09-05T07:42:59.439Z,26.70
2018-09-05T07:45:26.044Z,27.30
2018-09-05T07:47:52.686Z,28.40
2018-09-05T07:50:19.292Z,28.80
2018-09-05T07:52:45.903Z,29.30
2018-09-05T07:55:12.607Z,29.50
2018-09-05T07:57:39.247Z,30.10
2018-09-05T08:00:06.173Z,29.80
2018-09-05T08:02:32.826Z,30.40
2018-09-05T08:04:59.488Z,30.70
2018-09-05T08:07:26.115Z,30.60
2018-09-05T08:09:52.759Z,31.40
2018-09-05T08:12:19.367Z,31.80
2018-09-05T08:14:46.011Z,32.10
2018-09-05T08:17:12.627Z,32.00
2018-09-05T08:19:39.270Z,31.70
2018-09-05T08:22:05.878Z,32.30
2018-09-05T08:24:32.587Z,32.70
2018-09-05T08:26:59.207Z,33.20
2018-09-05T08:29:25.864Z,33.30
2018-09-05T08:31:52.478Z,33.70
2018-09-05T08:34:19.419Z,33.50
2018-09-05T08:36:46.316Z,33.70
2018-09-05T08:39:13.818Z,33.90
2018-09-05T08:41:40.499Z,34.10
2018-09-05T08:44:07.290Z,33.70
2018-09-05T08:46:33.715Z,34.10
2018-09-05T08:49:00.433Z,33.90
2018-09-05T08:51:27.043Z,34.50
2018-09-05T08:53:53.704Z,35.10
2018-09-05T08:56:20.391Z,35.40
2018-09-05T08:58:47.037Z,35.60
2018-09-05T09:01:13.598Z,35.40
2018-09-05T09:03:40.455Z,36.10
2018-09-05T09:06:07.363Z,36.10
2018-09-05T09:08:33.970Z,35.50
2018-09-05T09:11:00.610Z,36.20
2018-09-05T09:13:27.365Z,36.60
2018-09-05T09:15:54.327Z,36.50
2018-09-05T09:18:21.903Z,36.80
2018-09-05T09:20:48.820Z,36.30
2018-09-05T09:23:15.464Z,36.30
2018-09-05T09:25:42.299Z,36.10
2018-09-05T09:33:25.298Z,35.00
2018-09-05T09:35:51.974Z,36.90
2018-09-05T09:38:18.927Z,37.10
2018-09-05T09:40:45.534Z,37.60
2018-09-05T09:43:12.346Z,37.70
2018-09-05T09:45:38.955Z,37.70
2018-09-05T09:48:05.727Z,38.10
2018-09-05T09:50:32.372Z,38.40
2018-09-05T09:52:59.011Z,38.60
2018-09-05T09:55:25.615Z,38.40
2018-09-05T09:57:52.250Z,38.20
2018-09-05T10:00:24.730Z,38.70
2018-09-05T10:02:57.147Z,39.20
2018-09-05T10:05:29.639Z,39.30
2018-09-05T10:08:02.031Z,38.90
2018-09-05T10:10:34.497Z,39.50
2018-09-05T10:13:06.971Z,40.10
2018-09-05T10:15:39.358Z,40.00
2018-09-05T10:18:11.783Z,39.20
2018-09-05T10:20:38.406Z,38.80
2018-09-05T10:23:05.052Z,39.40
2018-09-05T10:25:31.667Z,39.40
2018-09-05T10:27:58.323Z,38.60
2018-09-05T10:30:32.331Z,38.90
2018-09-05T10:32:58.967Z,38.50
2018-09-05T10:35:25.903Z,38.50
2018-09-05T10:37:52.547Z,39.30
2018-09-05T10:40:19.164Z,39.50
2018-09-05T10:42:45.803Z,39.40
2018-09-05T10:45:12.567Z,39.50
2018-09-05T10:47:39.202Z,39.20
2018-09-05T10:50:05.812Z,39.50
2018-09-05T10:52:32.455Z,40.10
2018-09-05T10:54:59.067Z,39.90
2018-09-05T10:57:25.721Z,39.60
2018-09-05T10:59:52.344Z,40.20
2018-09-05T11:02:18.987Z,40.00
2018-09-05T11:04:45.631Z,41.00
2018-09-05T11:07:12.238Z,41.50
2018-09-05T11:09:38.875Z,41.20
2018-09-05T11:12:05.481Z,41.70
2018-09-05T11:14:32.119Z,42.10
2018-09-05T11:16:58.730Z,41.60
2018-09-05T11:19:25.751Z,40.80
2018-09-05T11:21:52.351Z,39.60
2018-09-05T11:24:19.007Z,40.80
2018-09-05T11:26:45.619Z,41.30
2018-09-05T11:29:12.252Z,40.90
2018-09-05T11:31:38.863Z,39.40
2018-09-05T11:34:05.499Z,37.40
2018-09-05T11:36:32.112Z,35.80
2018-09-05T11:38:58.759Z,35.90
2018-09-05T11:41:25.389Z,37.60
2018-09-05T11:43:52.847Z,39.00
2018-09-05T11:46:19.767Z,39.80
2018-09-05T11:48:46.398Z,38.50
2018-09-05T11:51:13.019Z,38.60
2018-09-05T11:53:39.986Z,39.90
2018-09-05T11:56:06.600Z,40.30
2018-09-05T11:58:33.234Z,40.30
2018-09-05T12:00:59.871Z,41.10
2018-09-05T12:03:26.498Z,41.50
2018-09-05T12:05:53.117Z,41.30
2018-09-05T12:08:19.750Z,40.50
2018-09-05T12:10:46.746Z,41.00
2018-09-05T12:13:13.386Z,40.50
2018-09-05T12:15:40.003Z,39.40
2018-09-05T12:18:06.610Z,39.80
2018-09-05T12:20:33.246Z,40.40
2018-09-05T12:22:59.861Z,41.00
2018-09-05T12:25:26.519Z,41.20
2018-09-05T12:27:53.138Z,42.30
2018-09-05T12:33:04.164Z,43.10
2018-09-05T12:35:30.800Z,42.10
2018-09-05T12:37:57.399Z,41.10
2018-09-05T12:40:24.011Z,41.50
2018-09-05T12:42:50.627Z,42.70
2018-09-05T12:45:17.511Z,43.10
2018-09-05T12:47:44.124Z,43.60
2018-09-05T12:50:10.731Z,44.00
2018-09-05T12:52:37.347Z,43.10
2018-09-05T12:55:04.154Z,40.70
2018-09-05T12:57:30.759Z,37.40
2018-09-05T12:59:57.366Z,35.60
2018-09-05T13:02:23.971Z,35.50
2018-09-05T13:04:50.623Z,37.50
2018-09-05T13:07:17.230Z,39.10
2018-09-05T13:09:43.847Z,39.60
2018-09-05T13:12:10.483Z,39.20
2018-09-05T13:14:37.099Z,39.80
2018-09-05T13:17:03.694Z,40.90
2018-09-05T13:19:30.298Z,41.50
2018-09-05T13:21:56.902Z,41.60
2018-09-05T13:24:23.566Z,41.30
2018-09-05T13:26:50.150Z,41.10
2018-09-05T13:29:17.015Z,40.30
2018-09-05T13:31:43.619Z,40.50
2018-09-05T13:34:10.218Z,39.30
2018-09-05T13:36:36.826Z,37.30
2018-09-05T13:39:04.984Z,35.30
2018-09-05T13:41:31.612Z,33.80
2018-09-05T13:43:58.228Z,32.50
2018-09-05T13:46:24.839Z,31.30
2018-09-05T13:48:51.438Z,30.60
2018-09-05T13:51:18.055Z,30.10
2018-09-05T13:53:44.689Z,29.70
2018-09-05T13:56:11.309Z,30.80
2018-09-05T13:58:37.907Z,32.90
2018-09-05T14:01:04.835Z,34.50
2018-09-05T14:03:31.823Z,35.90
2018-09-05T14:05:58.431Z,36.40
2018-09-05T14:08:25.279Z,36.80
2018-09-05T14:10:51.886Z,37.50
2018-09-05T14:13:18.483Z,38.20
2018-09-05T14:15:45.083Z,38.60
2018-09-05T14:18:11.686Z,38.50
2018-09-05T14:20:38.338Z,39.00
2018-09-05T14:23:05.352Z,38.60
2018-09-05T14:25:31.966Z,39.00
2018-09-05T14:27:58.567Z,38.80
2018-09-05T14:30:25.175Z,38.70
2018-09-05T14:32:51.790Z,39.20
2018-09-05T14:35:18.391Z,39.00
2018-09-05T14:37:45.235Z,39.30
2018-09-05T14:40:11.854Z,39.10
2018-09-05T14:42:38.459Z,38.80
2018-09-05T14:45:05.062Z,38.70
2018-09-05T14:47:31.668Z,38.40
2018-09-05T14:49:58.276Z,37.40
2018-09-05T14:52:24.883Z,35.60
2018-09-05T14:54:51.512Z,34.00
2018-09-05T14:57:18.127Z,33.10
2018-09-05T14:59:44.785Z,33.10
2018-09-05T15:02:11.350Z,33.70
2018-09-05T15:04:38.255Z,34.20
2018-09-05T15:07:05.203Z,33.70
2018-09-05T15:09:32.105Z,32.40
2018-09-05T15:11:59.066Z,31.10
2018-09-05T15:14:25.631Z,30.10
2018-09-05T15:16:52.252Z,29.90
2018-09-05T15:19:18.864Z,30.70
2018-09-05T15:21:45.733Z,31.40
2018-09-05T15:24:12.335Z,31.90
2018-09-05T15:26:38.942Z,32.30
2018-09-05T15:29:05.547Z,32.40
2018-09-05T15:31:32.165Z,32.00
2018-09-05T15:33:58.777Z,32.10
2018-09-05T15:36:25.395Z,32.20
2018-09-05T15:38:51.999Z,32.10
2018-09-05T15:41:18.608Z,31.90
2018-09-05T15:43:45.220Z,32.00
2018-09-05T15:46:11.854Z,32.00
2018-09-05T15:48:38.459Z,31.90
2018-09-05T15:51:05.070Z,31.80
2018-09-05T15:53:31.682Z,31.10
2018-09-05T15:55:58.295Z,29.90
2018-09-05T15:58:24.903Z,29.30
2018-09-05T16:00:51.524Z,29.40
2018-09-05T16:03:18.172Z,29.40
2018-09-05T16:05:44.759Z,29.40
2018-09-05T16:08:11.395Z,29.60
2018-09-05T16:10:39.439Z,29.20
2018-09-05T16:13:06.064Z,29.00
2018-09-05T16:15:32.853Z,28.80
2018-09-05T16:17:59.294Z,28.50
2018-09-05T16:20:25.904Z,28.30
2018-09-05T16:22:52.532Z,28.40
2018-09-05T16:25:19.146Z,28.50
2018-09-05T16:27:45.759Z,28.40
2018-09-05T16:30:12.359Z,28.20
2018-09-05T16:32:38.972Z,27.90
2018-09-05T16:35:05.587Z,27.30
2018-09-05T16:37:32.202Z,26.80
2018-09-05T16:39:58.811Z,26.40
2018-09-05T16:42:25.439Z,26.40
2018-09-05T16:44:52.051Z,26.10
2018-09-05T16:47:18.984Z,25.90
2018-09-05T16:49:45.595Z,25.80
2018-09-05T16:52:12.518Z,25.60
2018-09-05T16:54:39.155Z,25.30
2018-09-05T16:57:05.771Z,25.10
2018-09-05T16:59:32.375Z,24.80
2018-09-05T17:01:58.987Z,24.50
2018-09-05T17:04:25.594Z,24.30
2018-09-05T17:06:52.218Z,24.10
2018-09-05T17:09:18.848Z,23.80
2018-09-05T17:11:45.492Z,23.60
2018-09-05T17:14:12.117Z,23.30
2018-09-05T17:16:38.791Z,23.10
2018-09-05T17:19:05.425Z,22.80
2018-09-05T17:21:32.063Z,22.60
2018-09-05T17:23:59.014Z,22.40
2018-09-05T17:26:25.620Z,22.10
2018-09-05T17:28:52.250Z,21.90
2018-09-05T17:31:18.879Z,21.80
2018-09-05T17:33:45.492Z,21.60
2018-09-05T17:36:12.331Z,21.40
2018-09-05T17:38:38.939Z,21.20
2018-09-05T17:41:05.574Z,21.10
2018-09-05T17:43:32.183Z,21.00
2018-09-05T17:45:58.819Z,20.80
2018-09-05T17:48:25.460Z,20.70
2018-09-05T17:50:52.100Z,20.50
2018-09-05T17:53:18.715Z,20.40
2018-09-05T17:55:45.635Z,20.30
2018-09-05T17:58:12.243Z,20.20
2018-09-05T18:00:40.067Z,20.10
2018-09-05T18:03:06.914Z,20.00
2018-09-05T18:05:33.547Z,19.90
2018-09-05T18:08:00.207Z,19.80
2018-09-05T18:10:26.846Z,19.60
2018-09-05T18:12:53.463Z,19.50
2018-09-05T18:15:20.100Z,19.40
2018-09-05T18:17:46.719Z,19.30
2018-09-05T18:20:13.351Z,19.20
2018-09-05T18:22:39.966Z,19.10
2018-09-05T18:25:06.599Z,19.10
2018-09-05T18:27:33.204Z,19.00
2018-09-05T18:29:59.843Z,18.90
2018-09-05T18:32:26.443Z,18.90
2018-09-05T18:34:53.070Z,18.90
2018-09-05T18:37:19.683Z,18.80
2018-09-05T18:39:46.319Z,18.70
2018-09-05T18:42:12.936Z,18.60
2018-09-05T18:44:39.543Z,18.50
2018-09-05T18:47:06.183Z,18.30
2018-09-05T18:49:32.890Z,18.30
2018-09-05T18:51:59.867Z,18.20
2018-09-05T18:54:26.462Z,18.10
2018-09-05T18:56:53.091Z,18.10
2018-09-05T18:59:19.731Z,18.00
2018-09-05T19:01:46.618Z,17.90
2018-09-05T19:04:13.230Z,17.90
2018-09-05T19:06:39.872Z,17.80
2018-09-05T19:09:07.121Z,17.80
2018-09-05T19:11:33.743Z,17.80
2018-09-05T19:14:00.392Z,17.70
2018-09-05T19:16:26.991Z,17.70
2018-09-05T19:18:53.586Z,17.60
2018-09-05T19:21:20.215Z,17.60
2018-09-05T19:23:46.811Z,17.50
2018-09-05T19:26:13.434Z,17.50
2018-09-05T19:28:40.035Z,17.50
2018-09-05T19:31:06.671Z,17.40
2018-09-05T19:33:33.275Z,17.30
2018-09-05T19:35:59.908Z,17.30
2018-09-05T19:38:26.739Z,17.20
2018-09-05T19:40:53.371Z,17.20
2018-09-05T19:43:19.987Z,17.10
2018-09-05T19:45:46.999Z,17.10
2018-09-05T19:48:13.906Z,17.00
2018-09-05T19:50:40.555Z,17.00
2018-09-05T19:53:07.159Z,16.90
2018-09-05T19:55:33.763Z,16.90
2018-09-05T19:58:00.430Z,16.90
2018-09-05T20:00:27.039Z,16.90
2018-09-05T20:02:53.698Z,16.80
2018-09-05T20:05:20.588Z,16.80
2018-09-05T20:07:47.459Z,16.80
2018-09-05T20:10:14.070Z,16.70
2018-09-05T20:12:40.715Z,16.70
2018-09-05T20:15:07.327Z,16.60
2018-09-05T20:17:33.971Z,16.60
2018-09-05T20:20:00.646Z,16.60
2018-09-05T20:22:27.975Z,16.60
2018-09-05T20:24:54.603Z,16.60
2018-09-05T20:27:21.234Z,16.60
2018-09-05T20:29:47.834Z,16.50
2018-09-05T20:32:14.470Z,16.50
2018-09-05T20:34:41.084Z,16.40
2018-09-05T20:37:07.739Z,16.40
2018-09-05T20:39:34.348Z,16.40
2018-09-05T20:42:00.980Z,16.40
2018-09-05T20:44:27.595Z,16.50
2018-09-05T20:46:54.241Z,16.40
2018-09-05T20:49:20.846Z,16.50
2018-09-05T20:51:47.499Z,16.40
2018-09-05T20:54:14.116Z,16.40
2018-09-05T20:56:40.755Z,16.40
2018-09-05T20:59:07.395Z,16.30
2018-09-05T21:01:34.327Z,16.30
2018-09-05T21:04:00.941Z,16.20
2018-09-05T21:06:27.606Z,16.20
2018-09-05T21:08:54.552Z,16.20
2018-09-05T21:11:21.157Z,16.10
2018-09-05T21:13:47.791Z,16.10
2018-09-05T21:16:14.811Z,16.10
2018-09-05T21:18:41.438Z,16.10
2018-09-05T21:21:08.042Z,16.00
2018-09-05T21:23:34.670Z,15.90
2018-09-05T21:26:01.270Z,15.90
2018-09-05T21:28:27.906Z,15.90
2018-09-05T21:30:54.726Z,15.80
2018-09-05T21:33:21.380Z,15.80
2018-09-05T21:35:47.991Z,15.70
2018-09-05T21:38:14.627Z,15.70
2018-09-05T21:40:41.228Z,15.70
2018-09-05T21:43:07.858Z,15.70
2018-09-05T21:45:34.482Z,15.70
2018-09-05T21:48:01.115Z,15.70
2018-09-05T21:50:27.718Z,15.70
2018-09-05T21:52:54.348Z,15.70
2018-09-05T21:55:20.970Z,15.70
2018-09-05T21:57:47.607Z,15.70
2018-09-05T22:00:14.207Z,15.60
2018-09-05T22:02:41.104Z,15.60
2018-09-05T22:05:07.783Z,15.50
2018-09-05T22:07:34.699Z,15.50
2018-09-05T22:10:01.300Z,15.40
2018-09-05T22:12:27.918Z,15.40
2018-09-05T22:14:54.527Z,15.40
2018-09-05T22:17:21.159Z,15.40
2018-09-05T22:19:47.759Z,15.30
2018-09-05T22:22:14.666Z,15.30
2018-09-05T22:24:41.300Z,15.30
2018-09-05T22:27:07.920Z,15.30
2018-09-05T22:29:34.838Z,15.30
2018-09-05T22:32:01.441Z,15.30
2018-09-05T22:34:28.079Z,15.30
2018-09-05T22:36:54.682Z,15.30
2018-09-05T22:39:21.310Z,15.30
2018-09-05T22:41:47.926Z,15.30
2018-09-05T22:45:22.291Z,15.30
2018-09-05T22:48:00.519Z,15.30
2018-09-05T22:50:38.916Z,15.30
2018-09-05T22:53:18.835Z,15.20
2018-09-05T22:58:02.272Z,15.20
2018-09-05T23:02:47.099Z,15.10
2018-09-05T23:05:19.652Z,15.00
2018-09-05T23:07:52.096Z,15.00
2018-09-05T23:10:24.651Z,15.00
2018-09-05T23:12:57.155Z,15.00
2018-09-05T23:15:29.604Z,15.00
2018-09-05T23:19:03.824Z,15.00
2018-09-05T23:21:30.441Z,15.00
2018-09-05T23:23:59.989Z,15.00
2018-09-05T23:26:26.988Z,15.00
2018-09-05T23:28:53.628Z,15.00
2018-09-05T23:31:20.576Z,15.00
2018-09-05T23:33:47.436Z,15.00
2018-09-05T23:36:14.077Z,15.00
2018-09-05T23:38:40.691Z,15.00
2018-09-05T23:41:07.564Z,14.90
2018-09-05T23:43:34.183Z,14.90
2018-09-05T23:46:00.824Z,14.90
2018-09-05T23:48:27.443Z,14.80
2018-09-05T23:50:54.787Z,14.80
2018-09-05T23:53:21.400Z,14.80
2018-09-05T23:55:48.038Z,14.70
2018-09-05T23:58:14.944Z,14.70
